Погода Элмалына неделю

Средиземноморский регион, Турция

23 - 29 мая
  • 23мая
    Сегодня
    +10°
    +29°
    Ясно и безоблачно
    ВремяПогодаТемператураВлажностьДавлениеВетер, м/сВероятность осадков
    00:00Ясно и безоблачно+19°C46 %670 мм0.4 м/с2 %
    03:00Ясно и безоблачно+15°C55 %669 мм0.4 м/с2 %
    06:00Ясно и безоблачно+14°C56 %668 мм0.7 м/с2 %
    09:00Ясно и безоблачно+22°C35 %669 мм0.5 м/с2 %
    12:00Ясно и безоблачно+27°C19 %669 мм4.4 м/с2 %
    15:00Ясно и безоблачно+27°C12 %668 мм4.8 м/с2 %
    18:00Ясно и безоблачно+22°C31 %668 мм4.5 м/с5 %
    21:00Ясно и безоблачно+18°C55 %667 мм1.1 м/с3 %
  • 24мая
    Пятница
    +9°
    +24°
    Ясно и безоблачно
    ВремяПогодаТемператураВлажностьДавлениеВетер, м/сВероятность осадков
    00:00Ясно и безоблачно+15°C68 %667 мм0.9 м/с2 %
    03:00Ясно и безоблачно+12°C76 %666 мм1.0 м/с2 %
    06:00Ясно и безоблачно+10°C83 %666 мм0.8 м/с2 %
    09:00Ясно и безоблачно+16°C52 %668 мм0.6 м/с1 %
    12:00Практически безоблачно+23°C29 %669 мм3.8 м/с3 %
    15:00Ясно и безоблачно+24°C24 %669 мм4.3 м/с4 %
    18:00Ясно и безоблачно+24°C22 %669 мм3.8 м/с3 %
    21:00Ясно и безоблачно+20°C33 %669 мм1.4 м/с2 %
  • 25мая
    Суббота
    +11°
    +27°
    Ясно и безоблачно
    ВремяПогодаТемператураВлажностьДавлениеВетер, м/сВероятность осадков
    00:00Ясно и безоблачно+16°C52 %669 мм1.0 м/с2 %
    03:00Ясно и безоблачно+12°C60 %667 мм0.8 м/с2 %
    06:00Ясно и безоблачно+10°C65 %667 мм0.7 м/с2 %
    09:00Ясно и безоблачно+18°C36 %669 мм0.3 м/с2 %
    12:00Ясно и безоблачно+23°C15 %669 мм1.2 м/с2 %
    15:00Ясно и безоблачно+26°C10 %669 мм2.2 м/с2 %
    18:00Ясно и безоблачно+26°C13 %668 мм3.3 м/с3 %
    21:00Облачно с прояснениями+21°C25 %668 мм1.0 м/с2 %
  • 26мая
    Воскресенье
    +12°
    +25°
    Ясно и безоблачно
    ВремяПогодаТемператураВлажностьДавлениеВетер, м/сВероятность осадков
    00:00Практически безоблачно+17°C37 %668 мм0.2 м/с2 %
    03:00Ясно и безоблачно+13°C50 %667 мм0.7 м/с2 %
    06:00Практически безоблачно+12°C54 %667 мм0.7 м/с2 %
    09:00Практически безоблачно+20°C36 %669 мм0.9 м/с2 %
    12:00Практически безоблачно+25°C23 %670 мм3.8 м/с9 %
    15:00Ясно и безоблачно+25°C25 %670 мм4.6 м/с29 %
    18:00Ясно и безоблачно+24°C31 %670 мм2.6 м/с46 %
    21:00Ясно и безоблачно+20°C47 %670 мм1.3 м/с22 %
Мы используем cookies
Соглашаюсь